createdAt,value
2022-12-29T00:02:20.487Z,7.50
2022-12-29T00:04:47.269Z,7.50
2022-12-29T00:07:14.173Z,7.40
2022-12-29T00:09:40.983Z,7.30
2022-12-29T00:12:07.844Z,7.30
2022-12-29T00:14:53.553Z,7.20
2022-12-29T00:17:20.438Z,7.30
2022-12-29T00:20:05.729Z,7.20
2022-12-29T00:22:50.933Z,7.20
2022-12-29T00:25:36.974Z,7.20
2022-12-29T00:28:22.488Z,7.20
2022-12-29T00:31:07.860Z,7.20
2022-12-29T00:33:53.320Z,7.20
2022-12-29T00:36:25.518Z,7.30
2022-12-29T00:39:15.635Z,7.30
2022-12-29T00:42:01.072Z,7.30
2022-12-29T00:44:29.122Z,7.30
2022-12-29T00:46:55.961Z,7.20
2022-12-29T00:49:31.853Z,7.20
2022-12-29T00:52:07.428Z,7.20
2022-12-29T00:54:36.588Z,7.20
2022-12-29T00:57:05.921Z,7.20
2022-12-29T00:59:32.994Z,7.10
2022-12-29T01:02:00.431Z,7.00
2022-12-29T01:04:27.969Z,7.00
2022-12-29T01:06:55.402Z,7.00
2022-12-29T01:09:41.274Z,7.00
2022-12-29T01:13:04.957Z,7.00
2022-12-29T01:15:31.793Z,7.00
2022-12-29T01:17:59.122Z,7.00
2022-12-29T01:20:26.145Z,7.00
2022-12-29T01:22:53.311Z,6.90
2022-12-29T01:25:20.177Z,7.00
2022-12-29T01:27:47.020Z,7.00
2022-12-29T01:30:14.505Z,7.10
2022-12-29T01:32:41.395Z,7.20
2022-12-29T01:35:08.399Z,7.20
2022-12-29T01:37:35.232Z,7.20
2022-12-29T01:40:02.162Z,7.30
2022-12-29T01:42:28.982Z,7.20
2022-12-29T01:44:57.379Z,7.30
2022-12-29T01:47:35.887Z,7.30
2022-12-29T01:50:26.155Z,7.30
2022-12-29T01:53:03.287Z,7.20
2022-12-29T01:55:32.466Z,7.10
2022-12-29T01:58:02.903Z,7.10
2022-12-29T02:00:29.809Z,7.20
2022-12-29T02:02:56.663Z,7.10
2022-12-29T02:05:38.603Z,7.20
2022-12-29T02:08:05.730Z,7.20
2022-12-29T02:10:36.029Z,7.30
2022-12-29T02:13:03.621Z,7.40
2022-12-29T02:16:09.803Z,7.40
2022-12-29T02:18:58.610Z,7.30
2022-12-29T02:21:45.844Z,7.40
2022-12-29T02:24:28.376Z,7.40
2022-12-29T02:26:58.444Z,7.30
2022-12-29T02:30:15.652Z,7.20
2022-12-29T02:32:45.221Z,7.30
2022-12-29T02:35:57.137Z,7.30
2022-12-29T02:38:50.172Z,7.20
2022-12-29T02:41:32.780Z,7.10
2022-12-29T02:44:15.113Z,7.20
2022-12-29T02:46:53.183Z,7.20
2022-12-29T02:49:21.388Z,7.30
2022-12-29T02:52:08.757Z,7.30
2022-12-29T02:54:43.818Z,7.30
2022-12-29T02:57:29.581Z,7.20
2022-12-29T03:00:11.462Z,7.20
2022-12-29T03:02:57.346Z,7.10
2022-12-29T03:05:42.434Z,7.20
2022-12-29T03:08:33.394Z,7.20
2022-12-29T03:11:28.563Z,7.20
2022-12-29T03:14:29.386Z,7.20
2022-12-29T03:17:03.675Z,7.20
2022-12-29T03:19:39.136Z,7.00
2022-12-29T03:22:29.184Z,7.00
2022-12-29T03:25:18.999Z,7.10
2022-12-29T03:27:52.490Z,7.10
2022-12-29T03:30:20.038Z,7.20
2022-12-29T03:32:53.271Z,7.40
2022-12-29T03:35:24.620Z,7.50
2022-12-29T03:38:14.788Z,7.40
2022-12-29T03:40:45.844Z,7.30
2022-12-29T03:43:13.855Z,7.20
2022-12-29T03:45:40.968Z,7.50
2022-12-29T03:48:07.814Z,7.50
2022-12-29T03:50:34.848Z,7.40
2022-12-29T03:53:01.632Z,7.40
2022-12-29T03:55:28.808Z,7.40
2022-12-29T03:57:56.170Z,7.30
2022-12-29T04:00:22.925Z,7.20
2022-12-29T04:02:50.115Z,7.20
2022-12-29T04:05:17.045Z,7.30
2022-12-29T04:07:44.304Z,7.20
2022-12-29T04:10:11.041Z,7.30
2022-12-29T04:12:37.837Z,7.30
2022-12-29T04:15:05.190Z,7.20
2022-12-29T04:17:31.913Z,7.10
2022-12-29T04:20:18.636Z,7.30
2022-12-29T04:22:45.384Z,7.30
2022-12-29T04:25:12.578Z,7.30
2022-12-29T04:27:39.894Z,7.30
2022-12-29T04:30:07.736Z,7.40
2022-12-29T04:32:34.646Z,7.30
2022-12-29T04:35:01.391Z,7.30
2022-12-29T04:37:28.144Z,7.50
2022-12-29T04:39:55.038Z,7.40
2022-12-29T04:42:21.825Z,7.30
2022-12-29T04:44:48.560Z,7.50
2022-12-29T04:47:15.317Z,7.50
2022-12-29T04:49:42.391Z,7.60
2022-12-29T04:52:09.470Z,7.60
2022-12-29T04:54:36.736Z,7.70
2022-12-29T04:57:04.083Z,7.90
2022-12-29T04:59:30.838Z,7.80
2022-12-29T05:01:58.586Z,7.90
2022-12-29T05:04:25.508Z,7.80
2022-12-29T05:06:52.252Z,7.80
2022-12-29T05:09:19.759Z,7.80
2022-12-29T05:11:46.577Z,8.00
2022-12-29T05:14:13.318Z,7.90
2022-12-29T05:16:41.642Z,7.90
2022-12-29T05:19:08.556Z,8.00
2022-12-29T05:21:35.783Z,8.00
2022-12-29T05:24:03.036Z,7.90
2022-12-29T05:26:30.392Z,7.80
2022-12-29T05:28:57.218Z,7.80
2022-12-29T05:31:24.189Z,7.80
2022-12-29T05:33:51.115Z,7.70
2022-12-29T05:36:18.369Z,7.60
2022-12-29T05:38:45.483Z,7.50
2022-12-29T05:41:12.641Z,7.30
2022-12-29T05:43:39.781Z,7.20
2022-12-29T05:46:06.571Z,7.10
2022-12-29T05:48:37.849Z,7.10
2022-12-29T05:51:05.331Z,7.10
2022-12-29T05:53:32.583Z,7.20
2022-12-29T05:56:00.492Z,7.20
2022-12-29T05:58:27.377Z,7.30
2022-12-29T06:00:54.351Z,7.30
2022-12-29T06:03:21.287Z,7.40
2022-12-29T06:05:48.323Z,7.40
2022-12-29T06:08:15.189Z,7.40
2022-12-29T06:10:42.032Z,7.40
2022-12-29T06:13:09.327Z,7.50
2022-12-29T06:15:37.376Z,7.50
2022-12-29T06:18:04.504Z,7.50
2022-12-29T06:20:31.752Z,7.50
2022-12-29T06:22:58.680Z,7.60
2022-12-29T06:25:26.247Z,7.60
2022-12-29T06:27:54.857Z,7.70
2022-12-29T06:30:22.033Z,7.70
2022-12-29T06:32:48.943Z,7.80
2022-12-29T06:35:15.879Z,7.80
2022-12-29T06:37:42.745Z,7.70
2022-12-29T06:40:10.335Z,7.70
2022-12-29T06:42:37.285Z,7.80
2022-12-29T06:45:05.059Z,8.00
2022-12-29T06:47:31.890Z,8.00
2022-12-29T06:49:58.757Z,8.10
2022-12-29T06:52:25.647Z,8.10
2022-12-29T06:54:52.647Z,8.20
2022-12-29T06:57:19.499Z,8.20
2022-12-29T06:59:46.443Z,8.40
2022-12-29T07:02:15.902Z,8.30
2022-12-29T07:07:14.208Z,8.20
2022-12-29T07:09:41.246Z,8.30
2022-12-29T07:12:08.371Z,8.40
2022-12-29T07:14:42.739Z,8.50
2022-12-29T07:17:10.354Z,8.60
2022-12-29T07:19:37.741Z,8.50
2022-12-29T07:22:04.702Z,8.50
2022-12-29T07:24:34.130Z,8.50
2022-12-29T07:32:19.303Z,8.70
2022-12-29T07:34:48.489Z,8.60
2022-12-29T07:39:51.485Z,8.50
2022-12-29T07:45:02.552Z,8.60
2022-12-29T07:47:29.509Z,8.70
2022-12-29T07:49:56.380Z,8.90
2022-12-29T07:52:24.156Z,9.00
2022-12-29T07:54:51.164Z,9.20
2022-12-29T07:57:31.574Z,9.20
2022-12-29T07:59:59.385Z,9.40
2022-12-29T08:02:27.906Z,9.50
2022-12-29T08:21:11.908Z,9.60
2022-12-29T08:26:14.408Z,9.50
2022-12-29T08:28:41.522Z,9.60
2022-12-29T08:31:12.062Z,9.70
2022-12-29T08:33:39.888Z,9.60
2022-12-29T08:36:11.812Z,9.50
2022-12-29T08:38:47.179Z,9.70
2022-12-29T08:41:15.100Z,9.70
2022-12-29T08:43:42.382Z,9.70
2022-12-29T08:46:09.250Z,9.70
2022-12-29T08:48:37.235Z,9.50
2022-12-29T08:51:04.155Z,9.40
2022-12-29T08:53:33.827Z,9.40
2022-12-29T08:56:07.630Z,9.40
2022-12-29T08:58:36.180Z,9.40
2022-12-29T09:01:03.612Z,9.40
2022-12-29T09:06:20.976Z,9.40
2022-12-29T09:08:48.875Z,9.40
2022-12-29T09:11:22.927Z,9.60
2022-12-29T09:13:50.031Z,9.50
2022-12-29T09:16:17.452Z,9.60
2022-12-29T09:18:45.432Z,9.70
2022-12-29T09:21:13.387Z,9.80
2022-12-29T09:23:40.656Z,10.00
2022-12-29T09:26:09.201Z,10.20
2022-12-29T09:28:39.430Z,10.10
2022-12-29T09:31:06.950Z,10.10
2022-12-29T09:33:36.906Z,10.30
2022-12-29T09:36:05.018Z,10.20
2022-12-29T09:38:31.923Z,10.30
2022-12-29T09:41:08.244Z,10.30
2022-12-29T09:43:59.982Z,10.50
2022-12-29T09:46:38.519Z,10.70
2022-12-29T09:49:25.727Z,10.70
2022-12-29T09:51:56.113Z,10.70
2022-12-29T09:54:25.982Z,10.90
2022-12-29T09:56:55.859Z,11.00
2022-12-29T09:59:28.406Z,10.80
2022-12-29T10:02:08.149Z,10.90
2022-12-29T10:04:35.614Z,10.80
2022-12-29T10:07:29.677Z,10.70
2022-12-29T10:10:15.535Z,10.80
2022-12-29T10:12:54.426Z,10.80
2022-12-29T10:15:41.265Z,10.80
2022-12-29T10:18:46.358Z,10.80
2022-12-29T10:21:40.271Z,10.80
2022-12-29T10:24:12.267Z,10.90
2022-12-29T10:26:45.225Z,11.20
2022-12-29T10:29:20.749Z,11.30
2022-12-29T10:32:00.707Z,11.40
2022-12-29T10:34:43.095Z,11.40
2022-12-29T10:37:31.869Z,11.40
2022-12-29T10:40:02.521Z,11.40
2022-12-29T10:42:37.900Z,11.30
2022-12-29T10:45:06.479Z,11.30
2022-12-29T10:47:39.234Z,11.30
2022-12-29T10:50:07.104Z,11.20
2022-12-29T10:52:35.263Z,11.20
2022-12-29T10:55:13.192Z,11.20
2022-12-29T10:57:45.640Z,11.30
2022-12-29T11:00:14.140Z,11.40
2022-12-29T11:03:15.423Z,11.40
2022-12-29T11:06:03.931Z,11.40
2022-12-29T11:08:38.863Z,11.50
2022-12-29T11:11:08.596Z,11.50
2022-12-29T11:13:50.350Z,11.60
2022-12-29T11:16:35.881Z,11.50
2022-12-29T11:19:03.788Z,11.60
2022-12-29T11:21:43.152Z,11.80
2022-12-29T11:24:30.913Z,11.70
2022-12-29T11:27:25.663Z,11.70
2022-12-29T11:29:54.649Z,11.80
2022-12-29T11:32:29.034Z,11.80
2022-12-29T11:35:00.094Z,11.70
2022-12-29T11:37:35.608Z,11.70
2022-12-29T11:40:17.149Z,11.90
2022-12-29T11:42:53.857Z,11.90
2022-12-29T11:45:36.302Z,12.10
2022-12-29T11:48:10.520Z,12.10
2022-12-29T11:50:41.761Z,12.20
2022-12-29T11:53:22.965Z,12.30
2022-12-29T11:56:12.865Z,12.10
2022-12-29T11:58:40.321Z,12.10
2022-12-29T12:01:19.518Z,12.00
2022-12-29T12:04:07.337Z,11.90
2022-12-29T12:06:38.045Z,11.70
2022-12-29T12:09:12.025Z,11.80
2022-12-29T12:11:43.271Z,11.70
2022-12-29T12:14:21.979Z,11.80
2022-12-29T12:16:57.033Z,11.60
2022-12-29T12:19:38.065Z,11.40
2022-12-29T12:22:31.411Z,11.40
2022-12-29T12:25:12.488Z,11.00
2022-12-29T12:27:50.326Z,10.90
2022-12-29T12:30:24.382Z,10.90
2022-12-29T12:33:07.174Z,10.80
2022-12-29T12:35:52.990Z,10.80
2022-12-29T12:39:11.343Z,10.90
2022-12-29T12:42:06.767Z,10.90
2022-12-29T12:45:00.803Z,10.80
2022-12-29T12:48:05.418Z,10.80
2022-12-29T12:50:53.528Z,10.70
2022-12-29T12:54:00.442Z,10.80
2022-12-29T12:56:52.214Z,10.80
2022-12-29T12:59:46.541Z,10.80
2022-12-29T13:02:42.399Z,10.90
2022-12-29T13:05:39.020Z,10.90
2022-12-29T13:08:36.134Z,10.90
2022-12-29T13:11:24.396Z,11.00
2022-12-29T13:14:02.301Z,10.90
2022-12-29T13:17:15.401Z,10.80
2022-12-29T13:20:05.485Z,10.90
2022-12-29T13:22:47.103Z,10.90
2022-12-29T13:25:32.825Z,11.00
2022-12-29T13:28:19.215Z,11.00
2022-12-29T13:31:01.208Z,11.00
2022-12-29T13:33:50.131Z,11.10
2022-12-29T13:36:30.583Z,11.20
2022-12-29T13:39:07.678Z,11.20
2022-12-29T13:41:36.945Z,11.20
2022-12-29T13:44:05.685Z,11.20
2022-12-29T13:46:40.200Z,11.30
2022-12-29T13:49:19.252Z,11.40
2022-12-29T13:51:58.400Z,11.40
2022-12-29T13:54:49.734Z,11.40
2022-12-29T13:57:57.302Z,11.30
2022-12-29T14:00:26.821Z,11.30
2022-12-29T14:03:30.558Z,11.30
2022-12-29T14:06:15.565Z,11.20
2022-12-29T14:08:43.247Z,11.10
2022-12-29T14:11:12.541Z,11.00
2022-12-29T14:13:42.175Z,11.00
2022-12-29T14:16:31.722Z,10.70
2022-12-29T14:19:17.486Z,10.80
2022-12-29T14:22:00.449Z,10.90
2022-12-29T14:24:38.711Z,10.80
2022-12-29T14:27:11.292Z,10.80
2022-12-29T14:29:40.992Z,10.90
2022-12-29T14:32:40.562Z,10.90
2022-12-29T14:35:40.962Z,10.70
2022-12-29T14:38:19.861Z,10.50
2022-12-29T14:40:49.032Z,10.40
2022-12-29T14:43:23.826Z,10.20
2022-12-29T14:46:02.238Z,10.00
2022-12-29T14:48:40.066Z,9.80
2022-12-29T14:51:43.503Z,9.60
2022-12-29T14:54:41.447Z,9.20
2022-12-29T14:57:17.122Z,9.10
2022-12-29T14:59:46.561Z,9.00
2022-12-29T15:02:23.330Z,8.80
2022-12-29T15:04:50.832Z,8.60
2022-12-29T15:07:23.060Z,8.70
2022-12-29T15:09:57.754Z,8.70
2022-12-29T15:12:54.197Z,8.70
2022-12-29T15:15:27.719Z,8.50
2022-12-29T15:17:55.276Z,8.70
2022-12-29T15:20:32.734Z,8.40
2022-12-29T15:23:03.947Z,8.40
2022-12-29T15:25:31.886Z,8.30
2022-12-29T15:28:03.968Z,8.30
2022-12-29T15:30:31.319Z,8.20
2022-12-29T15:32:58.269Z,8.30
2022-12-29T15:35:37.479Z,8.20
2022-12-29T15:38:40.418Z,8.10
2022-12-29T15:41:29.093Z,8.10
2022-12-29T15:44:24.963Z,8.00
2022-12-29T15:46:51.792Z,7.90
2022-12-29T15:49:19.308Z,7.90
2022-12-29T15:51:46.626Z,7.80
2022-12-29T15:54:23.446Z,7.90
2022-12-29T15:56:51.519Z,7.70
2022-12-29T15:59:34.662Z,7.70
2022-12-29T16:02:08.705Z,7.70
2022-12-29T16:05:01.625Z,7.80
2022-12-29T16:07:37.236Z,7.80
2022-12-29T16:10:06.545Z,7.60
2022-12-29T16:12:37.048Z,7.60
2022-12-29T16:15:13.238Z,7.60
2022-12-29T16:17:52.243Z,7.60
2022-12-29T16:20:21.387Z,7.60
2022-12-29T16:22:51.368Z,7.70
2022-12-29T16:25:29.608Z,7.70
2022-12-29T16:27:56.521Z,7.70
2022-12-29T16:30:31.229Z,7.80
2022-12-29T16:33:03.404Z,7.80
2022-12-29T16:35:43.568Z,7.80
2022-12-29T16:38:24.341Z,7.70
2022-12-29T16:40:59.119Z,7.80
2022-12-29T16:43:28.465Z,7.80
2022-12-29T16:46:01.020Z,7.80
2022-12-29T16:48:35.066Z,7.90
2022-12-29T16:51:13.181Z,7.90
2022-12-29T16:53:42.855Z,7.90
2022-12-29T16:56:15.508Z,8.00
2022-12-29T16:58:47.601Z,7.90
2022-12-29T17:03:56.217Z,7.80
2022-12-29T17:06:24.928Z,7.80
2022-12-29T17:08:52.709Z,7.90
2022-12-29T17:17:05.367Z,7.80
2022-12-29T17:19:35.339Z,7.80
2022-12-29T17:22:10.482Z,7.80
2022-12-29T17:24:38.921Z,7.90
2022-12-29T17:27:05.987Z,7.90
2022-12-29T17:37:41.788Z,7.90
2022-12-29T17:40:16.468Z,7.80
2022-12-29T17:42:48.973Z,7.70
2022-12-29T17:45:22.161Z,7.80
2022-12-29T17:47:50.666Z,7.70
2022-12-29T17:50:20.456Z,7.70
2022-12-29T17:53:00.832Z,7.60
2022-12-29T17:55:37.704Z,7.60
2022-12-29T18:00:59.717Z,7.60
2022-12-29T18:03:33.488Z,7.60
2022-12-29T18:06:01.558Z,7.60
2022-12-29T18:08:31.749Z,7.70
2022-12-29T18:10:59.699Z,7.70
2022-12-29T18:13:43.549Z,7.80
2022-12-29T18:16:13.995Z,7.70
2022-12-29T18:18:41.558Z,7.80
2022-12-29T18:21:16.033Z,7.70
2022-12-29T18:23:43.508Z,7.70
2022-12-29T18:26:28.020Z,7.60
2022-12-29T18:28:56.639Z,7.60
2022-12-29T18:33:53.109Z,7.50
2022-12-29T18:36:21.195Z,7.50
2022-12-29T18:38:48.945Z,7.50
2022-12-29T18:41:19.404Z,7.50
2022-12-29T18:43:46.811Z,7.40
2022-12-29T18:46:20.464Z,7.50
2022-12-29T18:48:49.831Z,7.40
2022-12-29T18:51:18.921Z,7.40
2022-12-29T18:53:46.940Z,7.50
2022-12-29T18:56:16.674Z,7.40
2022-12-29T18:58:43.472Z,7.50
2022-12-29T19:01:23.194Z,7.40
2022-12-29T19:03:50.691Z,7.50
2022-12-29T19:06:17.534Z,7.50
2022-12-29T19:08:44.304Z,7.50
2022-12-29T19:11:11.696Z,7.40
2022-12-29T19:13:38.846Z,7.30
2022-12-29T19:16:11.055Z,7.30
2022-12-29T19:18:53.362Z,7.30
2022-12-29T19:21:25.736Z,7.40
2022-12-29T19:23:53.160Z,7.40
2022-12-29T19:26:32.542Z,7.40
2022-12-29T19:29:00.114Z,7.30
2022-12-29T19:31:27.223Z,7.30
2022-12-29T19:33:54.809Z,7.40
2022-12-29T19:36:22.809Z,7.40
2022-12-29T19:38:49.811Z,7.50
2022-12-29T19:41:17.145Z,7.40
2022-12-29T19:43:43.978Z,7.30
2022-12-29T19:46:15.223Z,7.50
2022-12-29T19:48:42.686Z,7.40
2022-12-29T19:51:13.379Z,7.50
2022-12-29T19:53:41.577Z,7.50
2022-12-29T19:56:09.728Z,7.40
2022-12-29T19:58:41.533Z,7.40
2022-12-29T20:01:13.765Z,7.40
2022-12-29T20:03:41.401Z,7.40
2022-12-29T20:06:11.369Z,7.40
2022-12-29T20:08:40.104Z,7.40
2022-12-29T20:11:10.924Z,7.40
2022-12-29T20:13:38.030Z,7.40
2022-12-29T20:16:07.848Z,7.40
2022-12-29T20:18:36.029Z,7.60
2022-12-29T20:21:05.560Z,7.60
2022-12-29T20:23:35.633Z,7.60
2022-12-29T20:26:05.712Z,7.60
2022-12-29T20:28:34.045Z,7.70
2022-12-29T20:31:14.428Z,7.60
2022-12-29T20:33:42.086Z,7.50
2022-12-29T20:36:31.408Z,7.50
2022-12-29T20:39:01.125Z,7.40
2022-12-29T20:41:28.526Z,7.40
2022-12-29T20:46:36.619Z,7.30
2022-12-29T20:49:08.059Z,7.30
2022-12-29T20:52:04.444Z,7.20
2022-12-29T20:54:23.964Z,7.20
2022-12-29T20:56:50.843Z,7.00
2022-12-29T20:59:28.649Z,6.90
2022-12-29T21:01:56.879Z,7.00
2022-12-29T21:04:26.536Z,6.90
2022-12-29T21:06:53.546Z,6.90
2022-12-29T21:09:24.755Z,6.90
2022-12-29T21:11:53.536Z,7.00
2022-12-29T21:14:20.427Z,7.10
2022-12-29T21:16:48.691Z,7.10
2022-12-29T21:19:17.257Z,7.30
2022-12-29T21:21:44.115Z,7.20
2022-12-29T21:26:53.828Z,7.20
2022-12-29T21:29:20.659Z,7.10
2022-12-29T21:31:49.262Z,7.10
2022-12-29T21:34:16.583Z,6.90
2022-12-29T21:36:43.516Z,6.90
2022-12-29T21:41:51.781Z,6.80
2022-12-29T21:47:18.656Z,6.80
2022-12-29T21:49:47.949Z,6.80
2022-12-29T21:52:15.926Z,6.80
2022-12-29T21:55:01.136Z,6.70
2022-12-29T21:57:54.801Z,6.80
2022-12-29T22:00:40.986Z,6.70
2022-12-29T22:08:31.799Z,6.80
2022-12-29T22:11:17.676Z,7.00
2022-12-29T22:13:44.940Z,7.10
2022-12-29T22:16:12.903Z,7.10
2022-12-29T22:18:40.441Z,7.20
2022-12-29T22:21:10.299Z,7.20
2022-12-29T22:23:37.818Z,7.00
2022-12-29T22:26:10.247Z,7.00
2022-12-29T22:28:38.972Z,7.10
2022-12-29T22:31:07.778Z,7.20
2022-12-29T22:33:34.854Z,7.30
2022-12-29T22:36:01.965Z,7.40
2022-12-29T22:38:28.940Z,7.50
2022-12-29T22:41:00.462Z,7.40
2022-12-29T22:43:30.516Z,7.40
2022-12-29T22:46:09.392Z,7.40
2022-12-29T22:48:37.473Z,7.40
2022-12-29T22:51:05.879Z,7.40
2022-12-29T23:25:48.597Z,8.00
2022-12-29T23:28:15.537Z,8.10
2022-12-29T23:30:51.589Z,7.90
2022-12-29T23:33:18.488Z,7.90
